sensor_id;sensor_type;location;lat;lon;timestamp;P1;durP1;ratioP1;P2;durP2;ratioP2
1725;SDS011;41776;48.260;8.928;2024-01-30T00:01:57;1.53;;;1.23;;
1725;SDS011;41776;48.260;8.928;2024-01-30T00:04:23;2.30;;;1.33;;
1725;SDS011;41776;48.260;8.928;2024-01-30T00:06:50;3.50;;;1.40;;
1725;SDS011;41776;48.260;8.928;2024-01-30T00:09:17;3.57;;;1.20;;
1725;SDS011;41776;48.260;8.928;2024-01-30T00:11:44;2.20;;;1.27;;
1725;SDS011;41776;48.260;8.928;2024-01-30T00:14:11;1.97;;;1.30;;
1725;SDS011;41776;48.260;8.928;2024-01-30T00:16:37;1.00;;;1.00;;
1725;SDS011;41776;48.260;8.928;2024-01-30T00:19:05;2.03;;;1.00;;
1725;SDS011;41776;48.260;8.928;2024-01-30T00:21:33;4.13;;;1.20;;
1725;SDS011;41776;48.260;8.928;2024-01-30T00:24:00;1.47;;;1.10;;
1725;SDS011;41776;48.260;8.928;2024-01-30T00:26:26;1.57;;;1.10;;
1725;SDS011;41776;48.260;8.928;2024-01-30T00:28:53;1.43;;;1.27;;
1725;SDS011;41776;48.260;8.928;2024-01-30T00:31:19;1.80;;;1.10;;
1725;SDS011;41776;48.260;8.928;2024-01-30T00:33:45;1.67;;;1.13;;
1725;SDS011;41776;48.260;8.928;2024-01-30T00:36:13;2.20;;;1.57;;
1725;SDS011;41776;48.260;8.928;2024-01-30T00:38:40;2.10;;;1.00;;
1725;SDS011;41776;48.260;8.928;2024-01-30T00:41:07;3.83;;;1.30;;
1725;SDS011;41776;48.260;8.928;2024-01-30T00:43:34;2.30;;;1.27;;
1725;SDS011;41776;48.260;8.928;2024-01-30T00:46:00;1.33;;;1.13;;
1725;SDS011;41776;48.260;8.928;2024-01-30T00:48:27;1.73;;;1.23;;
1725;SDS011;41776;48.260;8.928;2024-01-30T00:50:53;1.00;;;0.90;;
1725;SDS011;41776;48.260;8.928;2024-01-30T00:53:21;2.67;;;1.27;;
1725;SDS011;41776;48.260;8.928;2024-01-30T00:55:47;1.13;;;0.97;;
1725;SDS011;41776;48.260;8.928;2024-01-30T00:58:14;1.87;;;1.17;;
1725;SDS011;41776;48.260;8.928;2024-01-30T01:00:41;1.50;;;1.10;;
1725;SDS011;41776;48.260;8.928;2024-01-30T01:03:07;1.57;;;1.03;;
1725;SDS011;41776;48.260;8.928;2024-01-30T01:05:34;0.97;;;0.90;;
1725;SDS011;41776;48.260;8.928;2024-01-30T01:08:00;1.97;;;1.07;;
1725;SDS011;41776;48.260;8.928;2024-01-30T01:10:28;0.87;;;0.70;;
1725;SDS011;41776;48.260;8.928;2024-01-30T01:12:54;1.87;;;1.00;;
1725;SDS011;41776;48.260;8.928;2024-01-30T01:15:21;2.80;;;1.10;;
1725;SDS011;41776;48.260;8.928;2024-01-30T01:17:47;1.87;;;1.20;;
1725;SDS011;41776;48.260;8.928;2024-01-30T01:20:14;4.10;;;1.10;;
1725;SDS011;41776;48.260;8.928;2024-01-30T01:22:40;1.50;;;1.00;;
1725;SDS011;41776;48.260;8.928;2024-01-30T01:25:07;1.47;;;1.07;;
1725;SDS011;41776;48.260;8.928;2024-01-30T01:27:36;2.20;;;0.90;;
1725;SDS011;41776;48.260;8.928;2024-01-30T01:30:06;2.20;;;1.00;;
1725;SDS011;41776;48.260;8.928;2024-01-30T01:32:35;2.10;;;0.80;;
1725;SDS011;41776;48.260;8.928;2024-01-30T01:35:01;2.07;;;0.90;;
1725;SDS011;41776;48.260;8.928;2024-01-30T01:37:30;2.07;;;1.13;;
1725;SDS011;41776;48.260;8.928;2024-01-30T01:39:57;2.13;;;1.27;;
1725;SDS011;41776;48.260;8.928;2024-01-30T01:42:23;1.60;;;1.10;;
1725;SDS011;41776;48.260;8.928;2024-01-30T01:44:51;1.13;;;1.00;;
1725;SDS011;41776;48.260;8.928;2024-01-30T01:47:17;2.00;;;0.97;;
1725;SDS011;41776;48.260;8.928;2024-01-30T01:49:44;0.73;;;0.73;;
1725;SDS011;41776;48.260;8.928;2024-01-30T01:52:11;1.47;;;1.10;;
1725;SDS011;41776;48.260;8.928;2024-01-30T01:54:37;2.30;;;1.07;;
1725;SDS011;41776;48.260;8.928;2024-01-30T01:57:04;0.83;;;0.83;;
1725;SDS011;41776;48.260;8.928;2024-01-30T01:59:31;2.27;;;0.97;;
1725;SDS011;41776;48.260;8.928;2024-01-30T02:01:59;2.03;;;1.10;;
1725;SDS011;41776;48.260;8.928;2024-01-30T02:04:28;2.17;;;1.00;;
1725;SDS011;41776;48.260;8.928;2024-01-30T02:06:54;1.70;;;1.00;;
1725;SDS011;41776;48.260;8.928;2024-01-30T02:09:21;4.63;;;0.93;;
1725;SDS011;41776;48.260;8.928;2024-01-30T02:11:48;1.90;;;0.97;;
1725;SDS011;41776;48.260;8.928;2024-01-30T02:14:14;2.90;;;1.10;;
1725;SDS011;41776;48.260;8.928;2024-01-30T02:16:41;2.87;;;1.20;;
1725;SDS011;41776;48.260;8.928;2024-01-30T02:19:09;1.27;;;0.87;;
1725;SDS011;41776;48.260;8.928;2024-01-30T02:21:36;2.00;;;0.80;;
1725;SDS011;41776;48.260;8.928;2024-01-30T02:24:04;1.47;;;1.10;;
1725;SDS011;41776;48.260;8.928;2024-01-30T02:26:31;7.03;;;0.97;;
1725;SDS011;41776;48.260;8.928;2024-01-30T02:28:58;1.40;;;1.00;;
1725;SDS011;41776;48.260;8.928;2024-01-30T02:31:24;2.13;;;1.10;;
1725;SDS011;41776;48.260;8.928;2024-01-30T02:33:51;3.23;;;0.87;;
1725;SDS011;41776;48.260;8.928;2024-01-30T02:36:17;2.50;;;1.10;;
1725;SDS011;41776;48.260;8.928;2024-01-30T02:38:45;2.33;;;1.30;;
1725;SDS011;41776;48.260;8.928;2024-01-30T02:41:12;1.20;;;0.97;;
1725;SDS011;41776;48.260;8.928;2024-01-30T02:43:39;2.40;;;0.87;;
1725;SDS011;41776;48.260;8.928;2024-01-30T02:46:05;2.80;;;1.20;;
1725;SDS011;41776;48.260;8.928;2024-01-30T02:48:32;2.60;;;1.10;;
1725;SDS011;41776;48.260;8.928;2024-01-30T02:50:58;1.63;;;1.00;;
1725;SDS011;41776;48.260;8.928;2024-01-30T02:53:25;1.10;;;0.90;;
1725;SDS011;41776;48.260;8.928;2024-01-30T02:55:53;2.47;;;0.77;;
1725;SDS011;41776;48.260;8.928;2024-01-30T02:58:19;1.40;;;1.00;;
1725;SDS011;41776;48.260;8.928;2024-01-30T03:00:46;1.43;;;0.77;;
1725;SDS011;41776;48.260;8.928;2024-01-30T03:03:12;2.57;;;1.30;;
1725;SDS011;41776;48.260;8.928;2024-01-30T03:05:39;1.37;;;0.93;;
1725;SDS011;41776;48.260;8.928;2024-01-30T03:08:05;1.23;;;1.13;;
1725;SDS011;41776;48.260;8.928;2024-01-30T03:10:32;1.67;;;0.87;;
1725;SDS011;41776;48.260;8.928;2024-01-30T03:12:59;2.93;;;1.07;;
1725;SDS011;41776;48.260;8.928;2024-01-30T03:15:26;1.13;;;1.00;;
1725;SDS011;41776;48.260;8.928;2024-01-30T03:17:53;0.93;;;0.90;;
1725;SDS011;41776;48.260;8.928;2024-01-30T03:20:19;0.80;;;0.80;;
1725;SDS011;41776;48.260;8.928;2024-01-30T03:22:46;2.23;;;1.00;;
1725;SDS011;41776;48.260;8.928;2024-01-30T03:25:12;2.07;;;0.93;;
1725;SDS011;41776;48.260;8.928;2024-01-30T03:27:39;0.97;;;0.73;;
1725;SDS011;41776;48.260;8.928;2024-01-30T03:30:07;1.67;;;1.07;;
1725;SDS011;41776;48.260;8.928;2024-01-30T03:32:34;1.03;;;0.90;;
1725;SDS011;41776;48.260;8.928;2024-01-30T03:35:01;9.20;;;1.00;;
1725;SDS011;41776;48.260;8.928;2024-01-30T03:37:27;2.10;;;1.00;;
1725;SDS011;41776;48.260;8.928;2024-01-30T03:39:54;2.30;;;0.90;;
1725;SDS011;41776;48.260;8.928;2024-01-30T03:42:20;0.70;;;0.70;;
1725;SDS011;41776;48.260;8.928;2024-01-30T03:44:47;0.90;;;0.80;;
1725;SDS011;41776;48.260;8.928;2024-01-30T03:47:18;0.90;;;0.90;;
1725;SDS011;41776;48.260;8.928;2024-01-30T03:49:44;1.97;;;1.00;;
1725;SDS011;41776;48.260;8.928;2024-01-30T03:52:11;1.60;;;0.83;;
1725;SDS011;41776;48.260;8.928;2024-01-30T03:54:38;1.57;;;1.00;;
1725;SDS011;41776;48.260;8.928;2024-01-30T03:57:05;1.97;;;1.00;;
1725;SDS011;41776;48.260;8.928;2024-01-30T03:59:31;1.47;;;0.90;;
1725;SDS011;41776;48.260;8.928;2024-01-30T04:01:58;0.80;;;0.80;;
1725;SDS011;41776;48.260;8.928;2024-01-30T04:04:26;2.37;;;0.80;;
1725;SDS011;41776;48.260;8.928;2024-01-30T04:06:52;2.83;;;1.07;;
1725;SDS011;41776;48.260;8.928;2024-01-30T04:09:19;2.13;;;1.07;;
1725;SDS011;41776;48.260;8.928;2024-01-30T04:11:45;1.47;;;1.03;;
1725;SDS011;41776;48.260;8.928;2024-01-30T04:14:12;1.00;;;0.93;;
1725;SDS011;41776;48.260;8.928;2024-01-30T04:16:38;1.83;;;1.00;;
1725;SDS011;41776;48.260;8.928;2024-01-30T04:19:04;1.30;;;1.00;;
1725;SDS011;41776;48.260;8.928;2024-01-30T04:21:32;1.83;;;1.07;;
1725;SDS011;41776;48.260;8.928;2024-01-30T04:23:59;1.23;;;1.00;;
1725;SDS011;41776;48.260;8.928;2024-01-30T04:26:25;1.47;;;1.00;;
1725;SDS011;41776;48.260;8.928;2024-01-30T04:28:51;1.23;;;1.03;;
1725;SDS011;41776;48.260;8.928;2024-01-30T04:31:18;3.87;;;1.23;;
1725;SDS011;41776;48.260;8.928;2024-01-30T04:33:44;0.97;;;0.87;;
1725;SDS011;41776;48.260;8.928;2024-01-30T04:36:11;1.53;;;1.30;;
1725;SDS011;41776;48.260;8.928;2024-01-30T04:38:39;1.97;;;1.20;;
1725;SDS011;41776;48.260;8.928;2024-01-30T04:41:05;1.70;;;1.10;;
1725;SDS011;41776;48.260;8.928;2024-01-30T04:43:31;3.40;;;1.30;;
1725;SDS011;41776;48.260;8.928;2024-01-30T04:45:58;1.47;;;1.03;;
1725;SDS011;41776;48.260;8.928;2024-01-30T04:48:24;2.07;;;1.07;;
1725;SDS011;41776;48.260;8.928;2024-01-30T04:50:51;1.47;;;1.00;;
1725;SDS011;41776;48.260;8.928;2024-01-30T04:53:17;1.93;;;0.93;;
1725;SDS011;41776;48.260;8.928;2024-01-30T04:55:45;3.90;;;1.00;;
1725;SDS011;41776;48.260;8.928;2024-01-30T04:58:11;2.03;;;0.93;;
1725;SDS011;41776;48.260;8.928;2024-01-30T05:00:38;1.40;;;0.77;;
1725;SDS011;41776;48.260;8.928;2024-01-30T05:03:04;5.03;;;1.20;;
1725;SDS011;41776;48.260;8.928;2024-01-30T05:05:31;1.53;;;1.00;;
1725;SDS011;41776;48.260;8.928;2024-01-30T05:07:57;3.47;;;1.23;;
1725;SDS011;41776;48.260;8.928;2024-01-30T05:10:24;1.60;;;1.20;;
1725;SDS011;41776;48.260;8.928;2024-01-30T05:12:52;1.57;;;1.07;;
1725;SDS011;41776;48.260;8.928;2024-01-30T05:15:18;2.77;;;1.40;;
1725;SDS011;41776;48.260;8.928;2024-01-30T05:17:45;2.93;;;1.17;;
1725;SDS011;41776;48.260;8.928;2024-01-30T05:20:12;2.60;;;1.20;;
1725;SDS011;41776;48.260;8.928;2024-01-30T05:22:38;1.63;;;1.00;;
1725;SDS011;41776;48.260;8.928;2024-01-30T05:25:09;2.10;;;1.20;;
1725;SDS011;41776;48.260;8.928;2024-01-30T05:27:36;2.43;;;1.10;;
1725;SDS011;41776;48.260;8.928;2024-01-30T05:30:05;2.60;;;1.10;;
1725;SDS011;41776;48.260;8.928;2024-01-30T05:32:32;1.80;;;1.00;;
1725;SDS011;41776;48.260;8.928;2024-01-30T05:34:58;3.40;;;1.20;;
1725;SDS011;41776;48.260;8.928;2024-01-30T05:37:25;4.10;;;1.20;;
1725;SDS011;41776;48.260;8.928;2024-01-30T05:39:51;2.03;;;1.00;;
1725;SDS011;41776;48.260;8.928;2024-01-30T05:42:18;4.43;;;1.97;;
1725;SDS011;41776;48.260;8.928;2024-01-30T05:44:44;2.50;;;1.07;;
1725;SDS011;41776;48.260;8.928;2024-01-30T05:47:12;1.47;;;1.10;;
1725;SDS011;41776;48.260;8.928;2024-01-30T05:49:39;4.53;;;1.42;;
1725;SDS011;41776;48.260;8.928;2024-01-30T05:52:05;3.10;;;1.43;;
1725;SDS011;41776;48.260;8.928;2024-01-30T05:54:32;3.33;;;1.40;;
1725;SDS011;41776;48.260;8.928;2024-01-30T05:56:58;3.77;;;1.23;;
1725;SDS011;41776;48.260;8.928;2024-01-30T05:59:25;2.50;;;1.13;;
1725;SDS011;41776;48.260;8.928;2024-01-30T06:01:51;2.50;;;1.40;;
1725;SDS011;41776;48.260;8.928;2024-01-30T06:04:20;16.53;;;1.33;;
1725;SDS011;41776;48.260;8.928;2024-01-30T06:06:46;2.10;;;1.17;;
1725;SDS011;41776;48.260;8.928;2024-01-30T06:09:13;7.13;;;1.50;;
1725;SDS011;41776;48.260;8.928;2024-01-30T06:11:40;2.27;;;1.10;;
1725;SDS011;41776;48.260;8.928;2024-01-30T06:14:06;5.27;;;1.47;;
1725;SDS011;41776;48.260;8.928;2024-01-30T06:16:32;4.70;;;1.17;;
1725;SDS011;41776;48.260;8.928;2024-01-30T06:18:59;5.90;;;1.60;;
1725;SDS011;41776;48.260;8.928;2024-01-30T06:21:27;2.30;;;1.23;;
1725;SDS011;41776;48.260;8.928;2024-01-30T06:23:53;6.40;;;1.77;;
1725;SDS011;41776;48.260;8.928;2024-01-30T06:26:19;4.27;;;1.20;;
1725;SDS011;41776;48.260;8.928;2024-01-30T06:28:46;5.23;;;1.60;;
1725;SDS011;41776;48.260;8.928;2024-01-30T06:31:12;2.63;;;1.27;;
1725;SDS011;41776;48.260;8.928;2024-01-30T06:33:39;2.93;;;1.37;;
1725;SDS011;41776;48.260;8.928;2024-01-30T06:36:07;3.97;;;1.90;;
1725;SDS011;41776;48.260;8.928;2024-01-30T06:38:35;5.73;;;1.43;;
1725;SDS011;41776;48.260;8.928;2024-01-30T06:41:01;4.07;;;1.20;;
1725;SDS011;41776;48.260;8.928;2024-01-30T06:43:28;2.90;;;0.87;;
1725;SDS011;41776;48.260;8.928;2024-01-30T06:45:54;2.43;;;1.40;;
1725;SDS011;41776;48.260;8.928;2024-01-30T06:48:21;4.23;;;1.20;;
1725;SDS011;41776;48.260;8.928;2024-01-30T06:50:47;2.07;;;1.20;;
1725;SDS011;41776;48.260;8.928;2024-01-30T06:53:14;2.30;;;1.10;;
1725;SDS011;41776;48.260;8.928;2024-01-30T06:55:42;3.17;;;1.20;;
1725;SDS011;41776;48.260;8.928;2024-01-30T06:58:08;1.40;;;1.00;;
1725;SDS011;41776;48.260;8.928;2024-01-30T07:00:35;2.50;;;1.20;;
1725;SDS011;41776;48.260;8.928;2024-01-30T07:03:01;1.93;;;1.30;;
1725;SDS011;41776;48.260;8.928;2024-01-30T07:05:28;5.73;;;1.30;;
1725;SDS011;41776;48.260;8.928;2024-01-30T07:07:54;3.30;;;1.30;;
1725;SDS011;41776;48.260;8.928;2024-01-30T07:10:21;2.50;;;1.00;;
1725;SDS011;41776;48.260;8.928;2024-01-30T07:12:48;5.27;;;1.30;;
1725;SDS011;41776;48.260;8.928;2024-01-30T07:15:15;2.07;;;1.13;;
1725;SDS011;41776;48.260;8.928;2024-01-30T07:17:44;11.03;;;1.50;;
1725;SDS011;41776;48.260;8.928;2024-01-30T07:20:11;1.90;;;1.10;;
1725;SDS011;41776;48.260;8.928;2024-01-30T07:22:38;5.43;;;1.27;;
1725;SDS011;41776;48.260;8.928;2024-01-30T07:25:05;5.07;;;1.53;;
1725;SDS011;41776;48.260;8.928;2024-01-30T07:27:32;1.93;;;1.10;;
1725;SDS011;41776;48.260;8.928;2024-01-30T07:30:00;3.33;;;1.13;;
1725;SDS011;41776;48.260;8.928;2024-01-30T07:32:26;6.20;;;1.03;;
1725;SDS011;41776;48.260;8.928;2024-01-30T07:34:53;4.47;;;1.17;;
1725;SDS011;41776;48.260;8.928;2024-01-30T07:37:19;9.70;;;1.00;;
1725;SDS011;41776;48.260;8.928;2024-01-30T07:39:45;5.60;;;1.20;;
1725;SDS011;41776;48.260;8.928;2024-01-30T07:42:12;1.90;;;0.97;;
1725;SDS011;41776;48.260;8.928;2024-01-30T07:44:39;1.67;;;1.37;;
1725;SDS011;41776;48.260;8.928;2024-01-30T07:47:07;1.63;;;0.97;;
1725;SDS011;41776;48.260;8.928;2024-01-30T07:49:34;1.10;;;1.00;;
1725;SDS011;41776;48.260;8.928;2024-01-30T07:52:00;3.67;;;1.40;;
1725;SDS011;41776;48.260;8.928;2024-01-30T07:54:27;2.57;;;1.20;;
1725;SDS011;41776;48.260;8.928;2024-01-30T07:56:53;1.50;;;1.13;;
1725;SDS011;41776;48.260;8.928;2024-01-30T07:59:20;3.03;;;1.27;;
1725;SDS011;41776;48.260;8.928;2024-01-30T08:01:49;1.03;;;0.97;;
1725;SDS011;41776;48.260;8.928;2024-01-30T08:04:17;2.00;;;1.17;;
1725;SDS011;41776;48.260;8.928;2024-01-30T08:06:44;6.70;;;1.27;;
1725;SDS011;41776;48.260;8.928;2024-01-30T08:09:10;1.37;;;0.90;;
1725;SDS011;41776;48.260;8.928;2024-01-30T08:11:37;1.87;;;1.10;;
1725;SDS011;41776;48.260;8.928;2024-01-30T08:14:03;14.60;;;5.77;;
1725;SDS011;41776;48.260;8.928;2024-01-30T08:16:29;5.93;;;2.10;;
1725;SDS011;41776;48.260;8.928;2024-01-30T08:18:56;4.10;;;1.37;;
1725;SDS011;41776;48.260;8.928;2024-01-30T08:21:24;2.30;;;0.83;;
1725;SDS011;41776;48.260;8.928;2024-01-30T08:23:50;8.13;;;1.10;;
1725;SDS011;41776;48.260;8.928;2024-01-30T08:26:17;2.77;;;1.13;;
1725;SDS011;41776;48.260;8.928;2024-01-30T08:28:43;7.77;;;1.70;;
1725;SDS011;41776;48.260;8.928;2024-01-30T08:31:10;4.63;;;1.13;;
1725;SDS011;41776;48.260;8.928;2024-01-30T08:33:36;3.00;;;1.10;;
1725;SDS011;41776;48.260;8.928;2024-01-30T08:36:03;2.23;;;1.13;;
1725;SDS011;41776;48.260;8.928;2024-01-30T08:38:31;1.43;;;1.00;;
1725;SDS011;41776;48.260;8.928;2024-01-30T08:40:57;1.90;;;1.33;;
1725;SDS011;41776;48.260;8.928;2024-01-30T08:43:23;2.20;;;1.17;;
1725;SDS011;41776;48.260;8.928;2024-01-30T08:45:50;3.83;;;1.23;;
1725;SDS011;41776;48.260;8.928;2024-01-30T08:48:16;3.97;;;1.37;;
1725;SDS011;41776;48.260;8.928;2024-01-30T08:50:43;6.63;;;1.40;;
1725;SDS011;41776;48.260;8.928;2024-01-30T08:53:10;5.47;;;1.30;;
1725;SDS011;41776;48.260;8.928;2024-01-30T08:55:38;3.57;;;1.20;;
1725;SDS011;41776;48.260;8.928;2024-01-30T08:58:04;2.50;;;1.20;;
1725;SDS011;41776;48.260;8.928;2024-01-30T09:00:31;2.60;;;1.40;;
1725;SDS011;41776;48.260;8.928;2024-01-30T09:02:57;2.20;;;1.90;;
1725;SDS011;41776;48.260;8.928;2024-01-30T09:05:24;3.17;;;2.13;;
1725;SDS011;41776;48.260;8.928;2024-01-30T09:07:50;3.43;;;2.57;;
1725;SDS011;41776;48.260;8.928;2024-01-30T09:10:20;3.97;;;2.13;;
1725;SDS011;41776;48.260;8.928;2024-01-30T09:12:52;3.97;;;2.50;;
1725;SDS011;41776;48.260;8.928;2024-01-30T09:15:19;3.63;;;2.53;;
1725;SDS011;41776;48.260;8.928;2024-01-30T09:17:45;2.63;;;1.80;;
1725;SDS011;41776;48.260;8.928;2024-01-30T09:20:12;2.87;;;1.73;;
1725;SDS011;41776;48.260;8.928;2024-01-30T09:22:38;4.50;;;2.17;;
1725;SDS011;41776;48.260;8.928;2024-01-30T09:25:05;3.10;;;1.77;;
1725;SDS011;41776;48.260;8.928;2024-01-30T09:27:32;8.50;;;1.60;;
1725;SDS011;41776;48.260;8.928;2024-01-30T09:30:00;5.03;;;1.90;;
1725;SDS011;41776;48.260;8.928;2024-01-30T09:32:26;2.70;;;1.52;;
1725;SDS011;41776;48.260;8.928;2024-01-30T09:34:53;8.73;;;2.53;;
1725;SDS011;41776;48.260;8.928;2024-01-30T09:37:19;4.20;;;2.45;;
1725;SDS011;41776;48.260;8.928;2024-01-30T09:39:46;4.30;;;1.85;;
1725;SDS011;41776;48.260;8.928;2024-01-30T09:42:16;2.25;;;1.60;;
1725;SDS011;41776;48.260;8.928;2024-01-30T09:44:50;3.53;;;1.30;;
1725;SDS011;41776;48.260;8.928;2024-01-30T09:47:19;2.40;;;1.30;;
1725;SDS011;41776;48.260;8.928;2024-01-30T09:49:46;2.28;;;1.60;;
1725;SDS011;41776;48.260;8.928;2024-01-30T09:52:13;1.73;;;1.20;;
1725;SDS011;41776;48.260;8.928;2024-01-30T09:54:41;3.55;;;1.38;;
1725;SDS011;41776;48.260;8.928;2024-01-30T09:57:08;1.77;;;1.45;;
1725;SDS011;41776;48.260;8.928;2024-01-30T09:59:37;1.90;;;1.23;;
1725;SDS011;41776;48.260;8.928;2024-01-30T10:02:04;5.00;;;1.52;;
1725;SDS011;41776;48.260;8.928;2024-01-30T10:04:32;4.93;;;1.58;;
1725;SDS011;41776;48.260;8.928;2024-01-30T10:06:59;2.03;;;1.40;;
1725;SDS011;41776;48.260;8.928;2024-01-30T10:09:27;2.58;;;1.33;;
1725;SDS011;41776;48.260;8.928;2024-01-30T10:11:54;1.67;;;1.33;;
1725;SDS011;41776;48.260;8.928;2024-01-30T10:14:20;1.55;;;1.20;;
1725;SDS011;41776;48.260;8.928;2024-01-30T10:16:47;3.35;;;1.50;;
1725;SDS011;41776;48.260;8.928;2024-01-30T10:19:13;2.42;;;1.27;;
1725;SDS011;41776;48.260;8.928;2024-01-30T10:21:41;2.35;;;1.40;;
1725;SDS011;41776;48.260;8.928;2024-01-30T10:24:08;1.70;;;1.10;;
1725;SDS011;41776;48.260;8.928;2024-01-30T10:26:37;2.75;;;1.27;;
1725;SDS011;41776;48.260;8.928;2024-01-30T10:29:04;3.13;;;1.13;;
1725;SDS011;41776;48.260;8.928;2024-01-30T10:31:31;3.63;;;1.60;;
1725;SDS011;41776;48.260;8.928;2024-01-30T10:33:57;1.63;;;1.35;;
1725;SDS011;41776;48.260;8.928;2024-01-30T10:36:24;4.63;;;1.65;;
1725;SDS011;41776;48.260;8.928;2024-01-30T10:38:59;10.30;;;2.53;;
1725;SDS011;41776;48.260;8.928;2024-01-30T10:41:26;3.75;;;1.90;;
1725;SDS011;41776;48.260;8.928;2024-01-30T10:43:55;4.68;;;1.92;;
1725;SDS011;41776;48.260;8.928;2024-01-30T10:46:29;6.03;;;2.30;;
1725;SDS011;41776;48.260;8.928;2024-01-30T10:48:59;3.90;;;1.92;;
1725;SDS011;41776;48.260;8.928;2024-01-30T10:51:30;6.47;;;2.72;;
1725;SDS011;41776;48.260;8.928;2024-01-30T10:53:59;5.03;;;1.48;;
1725;SDS011;41776;48.260;8.928;2024-01-30T10:56:27;3.20;;;1.58;;
1725;SDS011;41776;48.260;8.928;2024-01-30T10:58:54;4.70;;;1.60;;
1725;SDS011;41776;48.260;8.928;2024-01-30T11:01:21;2.33;;;1.15;;
1725;SDS011;41776;48.260;8.928;2024-01-30T11:03:50;2.40;;;1.20;;
1725;SDS011;41776;48.260;8.928;2024-01-30T11:06:17;2.22;;;1.02;;
1725;SDS011;41776;48.260;8.928;2024-01-30T11:08:44;2.45;;;1.27;;
1725;SDS011;41776;48.260;8.928;2024-01-30T11:11:13;1.77;;;1.17;;
1725;SDS011;41776;48.260;8.928;2024-01-30T11:13:44;2.95;;;1.10;;
1725;SDS011;41776;48.260;8.928;2024-01-30T11:16:11;1.92;;;1.10;;
1725;SDS011;41776;48.260;8.928;2024-01-30T11:18:37;1.77;;;1.05;;
1725;SDS011;41776;48.260;8.928;2024-01-30T11:21:04;3.17;;;1.20;;
1725;SDS011;41776;48.260;8.928;2024-01-30T11:23:32;2.05;;;1.10;;
1725;SDS011;41776;48.260;8.928;2024-01-30T11:26:02;1.63;;;1.00;;
1725;SDS011;41776;48.260;8.928;2024-01-30T11:28:35;1.35;;;0.98;;
1725;SDS011;41776;48.260;8.928;2024-01-30T11:31:04;2.20;;;1.10;;
1725;SDS011;41776;48.260;8.928;2024-01-30T11:33:32;1.58;;;0.90;;
1725;SDS011;41776;48.260;8.928;2024-01-30T11:35:59;1.98;;;1.00;;
1725;SDS011;41776;48.260;8.928;2024-01-30T11:38:27;2.33;;;1.50;;
1725;SDS011;41776;48.260;8.928;2024-01-30T11:40:56;1.92;;;1.13;;
1725;SDS011;41776;48.260;8.928;2024-01-30T11:43:23;2.92;;;1.30;;
1725;SDS011;41776;48.260;8.928;2024-01-30T11:45:51;2.00;;;1.35;;
1725;SDS011;41776;48.260;8.928;2024-01-30T11:48:17;3.13;;;1.00;;
1725;SDS011;41776;48.260;8.928;2024-01-30T11:50:44;1.80;;;1.02;;
1725;SDS011;41776;48.260;8.928;2024-01-30T11:53:11;3.00;;;1.30;;
1725;SDS011;41776;48.260;8.928;2024-01-30T11:55:38;1.63;;;1.08;;
1725;SDS011;41776;48.260;8.928;2024-01-30T11:58:08;3.58;;;1.55;;
1725;SDS011;41776;48.260;8.928;2024-01-30T12:00:34;2.80;;;1.40;;
1725;SDS011;41776;48.260;8.928;2024-01-30T12:03:02;2.45;;;1.27;;
1725;SDS011;41776;48.260;8.928;2024-01-30T12:05:32;3.00;;;1.40;;
1725;SDS011;41776;48.260;8.928;2024-01-30T12:07:58;2.38;;;1.27;;
1725;SDS011;41776;48.260;8.928;2024-01-30T12:10:25;4.47;;;1.83;;
1725;SDS011;41776;48.260;8.928;2024-01-30T12:12:52;4.10;;;1.92;;
1725;SDS011;41776;48.260;8.928;2024-01-30T12:15:21;5.05;;;1.90;;
1725;SDS011;41776;48.260;8.928;2024-01-30T12:17:48;2.67;;;1.50;;
1725;SDS011;41776;48.260;8.928;2024-01-30T12:20:17;3.47;;;1.58;;
1725;SDS011;41776;48.260;8.928;2024-01-30T12:22:47;3.03;;;1.30;;
1725;SDS011;41776;48.260;8.928;2024-01-30T12:25:14;2.05;;;1.27;;
1725;SDS011;41776;48.260;8.928;2024-01-30T12:27:42;2.53;;;1.50;;
1725;SDS011;41776;48.260;8.928;2024-01-30T12:30:12;3.67;;;1.25;;
1725;SDS011;41776;48.260;8.928;2024-01-30T12:32:40;1.40;;;1.00;;
1725;SDS011;41776;48.260;8.928;2024-01-30T12:35:09;2.08;;;1.30;;
1725;SDS011;41776;48.260;8.928;2024-01-30T12:37:37;2.05;;;1.20;;
1725;SDS011;41776;48.260;8.928;2024-01-30T12:40:04;2.40;;;1.30;;
1725;SDS011;41776;48.260;8.928;2024-01-30T12:42:32;2.08;;;1.15;;
1725;SDS011;41776;48.260;8.928;2024-01-30T12:44:59;2.40;;;1.20;;
1725;SDS011;41776;48.260;8.928;2024-01-30T12:47:25;1.25;;;1.00;;
1725;SDS011;41776;48.260;8.928;2024-01-30T12:49:52;1.40;;;1.10;;
1725;SDS011;41776;48.260;8.928;2024-01-30T12:52:19;3.33;;;1.65;;
1725;SDS011;41776;48.260;8.928;2024-01-30T12:54:48;4.03;;;1.30;;
1725;SDS011;41776;48.260;8.928;2024-01-30T12:57:14;4.88;;;1.40;;
1725;SDS011;41776;48.260;8.928;2024-01-30T12:59:41;2.33;;;1.23;;
1725;SDS011;41776;48.260;8.928;2024-01-30T13:02:08;2.03;;;1.20;;
1725;SDS011;41776;48.260;8.928;2024-01-30T13:04:34;1.83;;;1.40;;
1725;SDS011;41776;48.260;8.928;2024-01-30T13:07:01;1.77;;;1.02;;
1725;SDS011;41776;48.260;8.928;2024-01-30T13:09:29;3.13;;;1.48;;
1725;SDS011;41776;48.260;8.928;2024-01-30T13:11:57;4.50;;;1.95;;
1725;SDS011;41776;48.260;8.928;2024-01-30T13:14:24;1.77;;;1.30;;
1725;SDS011;41776;48.260;8.928;2024-01-30T13:16:51;4.18;;;2.30;;
1725;SDS011;41776;48.260;8.928;2024-01-30T13:19:18;2.63;;;1.60;;
1725;SDS011;41776;48.260;8.928;2024-01-30T13:21:45;3.85;;;1.60;;
1725;SDS011;41776;48.260;8.928;2024-01-30T13:24:12;3.40;;;1.80;;
1725;SDS011;41776;48.260;8.928;2024-01-30T13:26:39;4.30;;;1.88;;
1725;SDS011;41776;48.260;8.928;2024-01-30T13:29:08;2.78;;;1.30;;
1725;SDS011;41776;48.260;8.928;2024-01-30T13:31:35;3.95;;;1.55;;
1725;SDS011;41776;48.260;8.928;2024-01-30T13:34:01;2.97;;;1.67;;
1725;SDS011;41776;48.260;8.928;2024-01-30T13:36:28;8.02;;;3.90;;
1725;SDS011;41776;48.260;8.928;2024-01-30T13:38:56;17.45;;;6.55;;
1725;SDS011;41776;48.260;8.928;2024-01-30T13:41:23;10.88;;;3.97;;
1725;SDS011;41776;48.260;8.928;2024-01-30T13:43:49;15.35;;;6.28;;
1725;SDS011;41776;48.260;8.928;2024-01-30T13:46:18;13.50;;;5.75;;
1725;SDS011;41776;48.260;8.928;2024-01-30T13:48:45;2.47;;;1.70;;
1725;SDS011;41776;48.260;8.928;2024-01-30T13:51:12;3.58;;;1.63;;
1725;SDS011;41776;48.260;8.928;2024-01-30T13:53:42;2.95;;;1.50;;
1725;SDS011;41776;48.260;8.928;2024-01-30T13:56:11;5.18;;;1.63;;
1725;SDS011;41776;48.260;8.928;2024-01-30T13:58:45;4.93;;;1.63;;
1725;SDS011;41776;48.260;8.928;2024-01-30T14:01:11;3.00;;;1.70;;
1725;SDS011;41776;48.260;8.928;2024-01-30T14:03:39;6.35;;;1.83;;
1725;SDS011;41776;48.260;8.928;2024-01-30T14:06:06;2.53;;;1.70;;
1725;SDS011;41776;48.260;8.928;2024-01-30T14:08:35;9.30;;;2.50;;
1725;SDS011;41776;48.260;8.928;2024-01-30T14:11:02;4.00;;;2.13;;
1725;SDS011;41776;48.260;8.928;2024-01-30T14:13:29;2.75;;;1.63;;
1725;SDS011;41776;48.260;8.928;2024-01-30T14:15:56;5.35;;;2.00;;
1725;SDS011;41776;48.260;8.928;2024-01-30T14:18:22;3.97;;;2.10;;
1725;SDS011;41776;48.260;8.928;2024-01-30T14:20:52;6.55;;;1.90;;
1725;SDS011;41776;48.260;8.928;2024-01-30T14:23:21;2.58;;;1.80;;
1725;SDS011;41776;48.260;8.928;2024-01-30T14:25:50;3.85;;;1.60;;
1725;SDS011;41776;48.260;8.928;2024-01-30T14:28:24;4.00;;;2.35;;
1725;SDS011;41776;48.260;8.928;2024-01-30T14:30:53;6.43;;;2.72;;
1725;SDS011;41776;48.260;8.928;2024-01-30T14:33:19;7.95;;;3.10;;
1725;SDS011;41776;48.260;8.928;2024-01-30T14:35:46;4.28;;;2.15;;
1725;SDS011;41776;48.260;8.928;2024-01-30T14:38:15;16.33;;;5.30;;
1725;SDS011;41776;48.260;8.928;2024-01-30T14:40:41;3.30;;;1.88;;
1725;SDS011;41776;48.260;8.928;2024-01-30T14:43:13;8.98;;;3.63;;
1725;SDS011;41776;48.260;8.928;2024-01-30T14:45:40;16.38;;;6.30;;
1725;SDS011;41776;48.260;8.928;2024-01-30T14:48:11;7.47;;;3.13;;
1725;SDS011;41776;48.260;8.928;2024-01-30T14:50:37;7.40;;;1.90;;
1725;SDS011;41776;48.260;8.928;2024-01-30T14:53:06;3.35;;;1.75;;
1725;SDS011;41776;48.260;8.928;2024-01-30T14:55:36;3.85;;;1.75;;
1725;SDS011;41776;48.260;8.928;2024-01-30T14:58:04;5.10;;;2.22;;
1725;SDS011;41776;48.260;8.928;2024-01-30T15:00:33;4.13;;;1.90;;